Glenburnie, Maryland
Current Conditions -  °F | °C
As of 4:54 AM on Friday 24 Oct 2014 (Local Time) from KBWI Reporting Station
Few Clouds Few Clouds  
Wind Chill: 12°   Ceiling: Unl
Heat Index: 12°   Visibility: 10mi
Dew Point:   Wind: 7mph
Humidity: 64%   Direction: 300°WNW
Pressure: 29.89"   Gusts: NA
Location:  39.1648°N, 76.6418°W
Report Text: KBWI 240854Z 30006KT 10SM FEW050 12/06 A2989 RMK AO2 SLP122 T01220056 51006
Loading
Personal Weather Stations






























Interactive Weather Map
Tropical Storm Tracking
New forecast layout! Learn more

10-Day Weather Forecast

Advertisements
Track Severe Weather on mobile